Time;durP1;ratioP1;P1;durP2;ratioP2;P2;SDS_P1;SDS_P2;PMS_P1;PMS_P2;Temp;Humidity;BMP_temperature;BMP_pressure;BME280_temperature;BME280_humidity;BME280_pressure;Samples;Min_cycle;Max_cycle;Signal;HPM_P1;HPM_P2
2022/07/13 00:02:21;;;;;;;1.67;1.00;;;;;;;;;;5080724;28;20204;-62
2022/07/13 00:04:50;;;;;;;0.90;0.85;;;;;;;;;;5080867;28;20234;-62
2022/07/13 00:07:18;;;;;;;1.10;1.00;;;;;;;;;;5080099;28;20239;-61
2022/07/13 00:09:45;;;;;;;0.90;0.90;;;;;;;;;;5080425;28;20224;-62
2022/07/13 00:12:13;;;;;;;0.93;0.90;;;;;;;;;;5080325;28;20254;-62
2022/07/13 00:14:40;;;;;;;4.35;1.20;;;;;;;;;;5080417;28;20236;-62
2022/07/13 00:17:08;;;;;;;1.08;0.95;;;;;;;;;;5080243;28;20282;-62
2022/07/13 00:19:35;;;;;;;1.10;1.10;;;;;;;;;;5080365;28;20551;-62
2022/07/13 00:22:04;;;;;;;1.20;1.10;;;;;;;;;;5080617;28;20613;-62
2022/07/13 00:24:32;;;;;;;0.90;0.90;;;;;;;;;;5079846;28;20240;-62
2022/07/13 00:26:59;;;;;;;0.90;0.90;;;;;;;;;;5080277;28;20476;-61
2022/07/13 00:29:27;;;;;;;1.00;1.00;;;;;;;;;;5079871;28;20267;-61
2022/07/13 00:31:54;;;;;;;1.00;1.00;;;;;;;;;;5080296;28;20548;-62
2022/07/13 00:34:22;;;;;;;1.13;1.00;;;;;;;;;;5080205;28;20278;-63
2022/07/13 00:36:49;;;;;;;0.80;0.80;;;;;;;;;;5080064;28;20247;-61
2022/07/13 00:39:18;;;;;;;1.85;0.95;;;;;;;;;;5080029;28;20619;-63
2022/07/13 00:41:46;;;;;;;2.40;1.10;;;;;;;;;;5080108;28;20536;-63
2022/07/13 00:44:14;;;;;;;0.90;0.90;;;;;;;;;;5079472;28;20210;-62
2022/07/13 00:46:42;;;;;;;0.80;0.80;;;;;;;;;;5079428;28;20204;-61
2022/07/13 00:49:11;;;;;;;1.35;1.10;;;;;;;;;;5079900;28;20228;-62
2022/07/13 00:51:40;;;;;;;0.90;0.90;;;;;;;;;;5079530;28;20208;-61
2022/07/13 00:54:08;;;;;;;0.85;0.85;;;;;;;;;;5079861;28;20212;-62
2022/07/13 00:56:37;;;;;;;1.02;0.93;;;;;;;;;;5080026;28;20535;-62
2022/07/13 00:59:07;;;;;;;1.35;1.00;;;;;;;;;;5079266;28;20193;-62
2022/07/13 01:01:34;;;;;;;1.33;0.90;;;;;;;;;;5079646;28;20232;-62
2022/07/13 01:04:02;;;;;;;1.00;1.00;;;;;;;;;;5079495;28;20204;-61
2022/07/13 01:06:29;;;;;;;1.20;1.10;;;;;;;;;;5079118;28;20215;-61
2022/07/13 01:08:57;;;;;;;0.90;0.90;;;;;;;;;;5079705;28;20560;-62
2022/07/13 01:11:25;;;;;;;1.00;1.00;;;;;;;;;;5079457;28;20204;-61
2022/07/13 01:13:54;;;;;;;1.48;1.10;;;;;;;;;;5079427;28;20235;-61
2022/07/13 01:16:21;;;;;;;0.80;0.80;;;;;;;;;;5078888;28;20272;-61
2022/07/13 01:18:49;;;;;;;0.80;0.80;;;;;;;;;;5079065;28;20243;-61
2022/07/13 01:21:17;;;;;;;1.20;1.10;;;;;;;;;;5079269;28;20264;-61
2022/07/13 01:23:46;;;;;;;1.30;1.13;;;;;;;;;;5079050;28;20195;-61
2022/07/13 01:26:13;;;;;;;1.02;1.02;;;;;;;;;;5079070;28;20239;-61
2022/07/13 01:28:41;;;;;;;1.00;1.00;;;;;;;;;;5078765;28;20236;-61
2022/07/13 01:31:10;;;;;;;0.88;0.88;;;;;;;;;;5078971;28;20251;-61
2022/07/13 01:33:38;;;;;;;0.90;0.90;;;;;;;;;;5079003;28;20254;-62
2022/07/13 01:36:05;;;;;;;1.10;1.00;;;;;;;;;;5078573;28;20204;-62
2022/07/13 01:38:33;;;;;;;0.90;0.90;;;;;;;;;;5078918;28;20600;-62
2022/07/13 01:41:02;;;;;;;1.00;1.00;;;;;;;;;;5078498;28;20204;-61
2022/07/13 01:43:32;;;;;;;0.90;0.88;;;;;;;;;;5078495;28;20212;-62
2022/07/13 01:46:00;;;;;;;0.95;0.95;;;;;;;;;;5078831;28;20230;-62
2022/07/13 01:48:27;;;;;;;0.98;0.98;;;;;;;;;;5078337;28;20273;-62
2022/07/13 01:50:55;;;;;;;1.00;0.90;;;;;;;;;;5078451;28;20285;-62
2022/07/13 01:53:22;;;;;;;1.00;1.00;;;;;;;;;;5078093;28;20204;-61
2022/07/13 01:55:50;;;;;;;0.93;0.93;;;;;;;;;;5078308;28;20278;-61
2022/07/13 01:58:19;;;;;;;0.95;0.95;;;;;;;;;;5078111;28;20211;-62
2022/07/13 02:00:46;;;;;;;1.20;1.10;;;;;;;;;;5078507;28;20201;-60
2022/07/13 02:03:14;;;;;;;0.90;0.90;;;;;;;;;;5078115;28;20295;-62
2022/07/13 02:05:42;;;;;;;0.90;0.90;;;;;;;;;;5078639;28;20265;-62
2022/07/13 02:08:09;;;;;;;0.90;0.90;;;;;;;;;;5078450;28;20208;-61
2022/07/13 02:10:37;;;;;;;0.98;0.98;;;;;;;;;;5077704;28;20266;-61
2022/07/13 02:13:05;;;;;;;0.80;0.80;;;;;;;;;;5078198;28;20257;-63
2022/07/13 02:15:34;;;;;;;0.90;0.90;;;;;;;;;;5078412;28;20247;-60
2022/07/13 02:18:01;;;;;;;1.00;0.90;;;;;;;;;;5078111;28;20239;-59
2022/07/13 02:20:29;;;;;;;1.00;0.95;;;;;;;;;;5078024;28;20259;-59
2022/07/13 02:22:57;;;;;;;0.85;0.85;;;;;;;;;;5077643;28;20596;-61
2022/07/13 02:25:24;;;;;;;1.15;1.05;;;;;;;;;;5077922;28;20248;-60
2022/07/13 02:27:52;;;;;;;1.17;1.08;;;;;;;;;;5077873;28;20574;-59
2022/07/13 02:30:19;;;;;;;1.20;1.10;;;;;;;;;;5077877;28;20663;-60
2022/07/13 02:32:48;;;;;;;1.10;1.00;;;;;;;;;;5078627;28;20204;-62
2022/07/13 02:35:15;;;;;;;1.80;1.10;;;;;;;;;;5078537;28;20215;-60
2022/07/13 02:37:43;;;;;;;1.00;0.90;;;;;;;;;;5078149;28;20204;-60
2022/07/13 02:40:12;;;;;;;1.00;1.00;;;;;;;;;;5078043;28;20208;-59
2022/07/13 02:42:40;;;;;;;1.30;1.20;;;;;;;;;;5077931;28;20656;-61
2022/07/13 02:45:09;;;;;;;1.00;1.00;;;;;;;;;;5077230;28;20204;-61
2022/07/13 02:47:36;;;;;;;1.35;1.10;;;;;;;;;;5077624;28;20197;-60
2022/07/13 02:50:06;;;;;;;1.10;1.00;;;;;;;;;;5077788;28;20263;-62
2022/07/13 02:52:33;;;;;;;1.00;1.00;;;;;;;;;;5077456;28;20292;-62
2022/07/13 02:55:01;;;;;;;1.00;1.00;;;;;;;;;;5077656;28;20236;-61
2022/07/13 02:57:29;;;;;;;1.00;1.00;;;;;;;;;;5077388;28;20577;-61
2022/07/13 02:59:56;;;;;;;1.02;1.00;;;;;;;;;;5077724;28;20200;-61
2022/07/13 03:02:24;;;;;;;1.00;1.00;;;;;;;;;;5077382;28;20262;-62
2022/07/13 03:04:51;;;;;;;1.05;1.05;;;;;;;;;;5077121;28;20204;-62
2022/07/13 03:07:20;;;;;;;1.00;1.00;;;;;;;;;;5077479;28;20266;-61
2022/07/13 03:09:48;;;;;;;1.42;1.10;;;;;;;;;;5077114;28;20228;-62
2022/07/13 03:12:15;;;;;;;0.90;0.90;;;;;;;;;;5077197;28;20249;-62
2022/07/13 03:14:43;;;;;;;1.10;1.10;;;;;;;;;;5077217;28;20235;-62
2022/07/13 03:17:10;;;;;;;1.35;1.00;;;;;;;;;;5076791;28;20247;-62
2022/07/13 03:19:37;;;;;;;1.20;1.10;;;;;;;;;;5076931;28;20230;-62
2022/07/13 03:22:05;;;;;;;0.90;0.90;;;;;;;;;;5078800;28;20212;-62
2022/07/13 03:24:34;;;;;;;1.02;1.02;;;;;;;;;;5080810;28;20580;-62
2022/07/13 03:27:04;;;;;;;0.80;0.80;;;;;;;;;;5080991;28;20580;-62
2022/07/13 03:29:31;;;;;;;1.00;1.00;;;;;;;;;;5080972;28;20604;-62
2022/07/13 03:31:59;;;;;;;1.15;1.10;;;;;;;;;;5080840;28;20261;-62
2022/07/13 03:34:27;;;;;;;1.13;1.08;;;;;;;;;;5080891;28;20212;-62
2022/07/13 03:36:54;;;;;;;0.98;0.98;;;;;;;;;;5080614;28;20294;-62
2022/07/13 03:39:21;;;;;;;1.15;1.10;;;;;;;;;;5080897;28;20235;-62
2022/07/13 03:41:51;;;;;;;0.90;0.90;;;;;;;;;;5080933;28;20236;-63
2022/07/13 03:44:18;;;;;;;1.00;1.00;;;;;;;;;;5080883;28;20337;-61
2022/07/13 03:46:46;;;;;;;1.15;1.15;;;;;;;;;;5080262;28;20211;-62
2022/07/13 03:49:13;;;;;;;0.98;0.98;;;;;;;;;;5080273;28;20205;-62
2022/07/13 03:51:42;;;;;;;1.25;1.15;;;;;;;;;;5080450;28;20265;-62
2022/07/13 03:54:10;;;;;;;1.13;1.02;;;;;;;;;;5080076;28;20270;-62
2022/07/13 03:56:39;;;;;;;0.95;0.95;;;;;;;;;;5080450;28;20232;-62
2022/07/13 03:59:08;;;;;;;1.10;1.10;;;;;;;;;;5079777;28;20200;-65
2022/07/13 04:01:36;;;;;;;1.00;1.00;;;;;;;;;;5080262;28;20247;-63
2022/07/13 04:04:04;;;;;;;1.10;1.00;;;;;;;;;;5079866;28;20655;-62
2022/07/13 04:06:31;;;;;;;1.00;1.00;;;;;;;;;;5079737;28;20208;-62
2022/07/13 04:08:58;;;;;;;1.63;1.00;;;;;;;;;;5079598;28;20215;-62
2022/07/13 04:11:26;;;;;;;0.90;0.90;;;;;;;;;;5080015;28;20562;-61
2022/07/13 04:13:54;;;;;;;1.27;1.17;;;;;;;;;;5079821;28;20196;-62
2022/07/13 04:16:23;;;;;;;1.13;1.00;;;;;;;;;;5079642;28;20585;-61
2022/07/13 04:18:50;;;;;;;1.63;1.00;;;;;;;;;;5079992;28;20504;-62
2022/07/13 04:21:18;;;;;;;1.08;1.08;;;;;;;;;;5079714;28;20460;-61
2022/07/13 04:23:45;;;;;;;1.05;1.02;;;;;;;;;;5078910;28;20212;-61
2022/07/13 04:26:13;;;;;;;1.00;1.00;;;;;;;;;;5079273;28;20247;-61
2022/07/13 04:28:40;;;;;;;2.08;1.02;;;;;;;;;;5079261;28;20548;-61
2022/07/13 04:31:08;;;;;;;0.90;0.90;;;;;;;;;;5078939;28;20323;-61
2022/07/13 04:33:37;;;;;;;1.00;1.00;;;;;;;;;;5077290;28;20250;-62
2022/07/13 04:36:07;;;;;;;0.90;0.90;;;;;;;;;;5078850;28;20338;-60
2022/07/13 04:38:35;;;;;;;2.03;1.10;;;;;;;;;;5078738;28;20211;-61
2022/07/13 04:41:02;;;;;;;1.38;1.10;;;;;;;;;;5078624;28;20199;-61
2022/07/13 04:43:31;;;;;;;1.42;1.30;;;;;;;;;;5078200;28;20251;-62
2022/07/13 04:45:58;;;;;;;1.05;1.05;;;;;;;;;;5077811;28;20228;-61
2022/07/13 04:48:26;;;;;;;0.90;0.90;;;;;;;;;;5078253;28;20214;-62
2022/07/13 04:50:55;;;;;;;1.27;1.17;;;;;;;;;;5077887;28;20263;-61
2022/07/13 04:53:23;;;;;;;1.02;1.02;;;;;;;;;;5077968;28;20588;-61
2022/07/13 04:55:50;;;;;;;0.90;0.90;;;;;;;;;;5077753;28;20321;-66
2022/07/13 04:58:18;;;;;;;1.20;1.10;;;;;;;;;;5078534;28;20212;-61
2022/07/13 05:00:45;;;;;;;1.17;1.05;;;;;;;;;;5078201;28;20236;-62
2022/07/13 05:03:12;;;;;;;1.08;1.08;;;;;;;;;;5076837;28;20213;-61
2022/07/13 05:05:40;;;;;;;1.23;1.13;;;;;;;;;;5076948;28;20243;-61
2022/07/13 05:08:11;;;;;;;1.25;0.90;;;;;;;;;;5076932;28;20204;-61
2022/07/13 05:10:39;;;;;;;1.10;1.00;;;;;;;;;;5076728;28;20317;-61
2022/07/13 05:13:06;;;;;;;1.13;1.02;;;;;;;;;;5076419;28;20239;-61
2022/07/13 05:15:34;;;;;;;1.00;1.00;;;;;;;;;;5076074;28;20745;-61
2022/07/13 05:18:01;;;;;;;1.10;1.02;;;;;;;;;;5076966;28;20255;-61
2022/07/13 05:20:29;;;;;;;1.02;0.90;;;;;;;;;;5076730;28;20607;-62
2022/07/13 05:22:56;;;;;;;1.00;1.00;;;;;;;;;;5077043;28;20266;-62
2022/07/13 05:25:25;;;;;;;1.27;1.17;;;;;;;;;;5076463;28;20197;-61
2022/07/13 05:27:53;;;;;;;1.05;0.95;;;;;;;;;;5076119;28;20204;-62
2022/07/13 05:30:20;;;;;;;1.30;1.17;;;;;;;;;;5076025;28;20627;-62
2022/07/13 05:32:48;;;;;;;1.30;1.20;;;;;;;;;;5075383;28;20204;-62
2022/07/13 05:35:15;;;;;;;0.95;0.95;;;;;;;;;;5091387;28;20261;-62
2022/07/13 05:37:43;;;;;;;0.98;0.98;;;;;;;;;;5095351;28;20200;-62
2022/07/13 05:40:11;;;;;;;1.08;1.08;;;;;;;;;;5095644;28;20771;-61
2022/07/13 05:42:40;;;;;;;1.10;1.10;;;;;;;;;;5095928;28;20204;-61
2022/07/13 05:45:08;;;;;;;1.25;1.05;;;;;;;;;;5095432;28;20208;-62
2022/07/13 05:47:35;;;;;;;1.38;1.10;;;;;;;;;;5095680;28;20204;-61
2022/07/13 05:50:03;;;;;;;1.20;1.10;;;;;;;;;;5094840;28;20219;-61
2022/07/13 05:52:30;;;;;;;0.93;0.93;;;;;;;;;;5096073;28;20239;-61
2022/07/13 05:54:58;;;;;;;1.10;1.00;;;;;;;;;;5096116;28;20203;-62
2022/07/13 05:57:25;;;;;;;1.13;1.13;;;;;;;;;;5095229;28;20204;-62
2022/07/13 05:59:54;;;;;;;1.02;1.00;;;;;;;;;;5094300;28;20288;-63
2022/07/13 06:02:22;;;;;;;1.00;1.00;;;;;;;;;;5092230;28;20246;-61
2022/07/13 06:04:49;;;;;;;1.15;1.15;;;;;;;;;;5075998;28;20239;-60
2022/07/13 06:07:17;;;;;;;1.10;1.10;;;;;;;;;;5082762;28;20203;-60
2022/07/13 06:09:44;;;;;;;1.00;1.00;;;;;;;;;;5083361;28;20228;-60
2022/07/13 06:12:12;;;;;;;1.00;1.00;;;;;;;;;;5082132;28;20197;-61
2022/07/13 06:14:40;;;;;;;1.08;1.08;;;;;;;;;;5074820;28;20251;-62
2022/07/13 06:17:09;;;;;;;1.20;1.13;;;;;;;;;;5082075;28;20196;-62
2022/07/13 06:19:37;;;;;;;1.17;1.08;;;;;;;;;;5083744;28;20195;-61
2022/07/13 06:22:04;;;;;;;1.00;1.00;;;;;;;;;;5085356;28;20593;-62
2022/07/13 06:24:32;;;;;;;1.00;1.00;;;;;;;;;;5082362;28;20196;-62
2022/07/13 06:26:59;;;;;;;1.40;1.30;;;;;;;;;;5085456;28;20280;-61
2022/07/13 06:29:27;;;;;;;1.25;1.20;;;;;;;;;;5083919;28;20289;-63
2022/07/13 06:31:55;;;;;;;1.20;1.10;;;;;;;;;;5083915;28;20212;-61
2022/07/13 06:34:24;;;;;;;1.08;1.08;;;;;;;;;;5084992;28;20223;-63
2022/07/13 06:36:51;;;;;;;1.23;1.10;;;;;;;;;;5084557;28;20200;-63
2022/07/13 06:39:19;;;;;;;1.35;1.00;;;;;;;;;;5082214;28;20197;-62
2022/07/13 06:41:47;;;;;;;1.38;1.27;;;;;;;;;;5084248;28;20253;-61
2022/07/13 06:44:14;;;;;;;1.20;1.10;;;;;;;;;;5090589;28;20207;-61
2022/07/13 06:46:43;;;;;;;1.10;1.00;;;;;;;;;;5095404;28;20199;-60
2022/07/13 06:49:11;;;;;;;1.00;1.00;;;;;;;;;;5090685;28;20204;-61
2022/07/13 06:51:40;;;;;;;0.95;0.95;;;;;;;;;;5077117;28;20224;-61
2022/07/13 06:54:07;;;;;;;1.30;1.20;;;;;;;;;;5075140;28;20717;-61
2022/07/13 06:56:35;;;;;;;1.13;1.10;;;;;;;;;;5074195;28;20204;-61
2022/07/13 06:59:02;;;;;;;1.00;0.90;;;;;;;;;;5085906;28;20246;-61
2022/07/13 07:01:30;;;;;;;1.40;0.90;;;;;;;;;;5084600;28;20192;-62
2022/07/13 07:03:57;;;;;;;1.02;1.02;;;;;;;;;;5077241;28;20530;-61
2022/07/13 07:06:25;;;;;;;1.08;1.08;;;;;;;;;;5074506;28;20203;-61
2022/07/13 07:08:54;;;;;;;1.00;1.00;;;;;;;;;;5081106;28;20231;-61
2022/07/13 07:11:21;;;;;;;1.15;1.15;;;;;;;;;;5078942;28;20255;-63
2022/07/13 07:13:49;;;;;;;1.00;1.00;;;;;;;;;;5074278;28;20274;-62
2022/07/13 07:16:16;;;;;;;1.02;0.93;;;;;;;;;;5079678;28;20260;-62
2022/07/13 07:18:44;;;;;;;0.90;0.90;;;;;;;;;;5071442;28;20506;-62
2022/07/13 07:21:12;;;;;;;1.00;1.00;;;;;;;;;;5075275;28;20211;-61
2022/07/13 07:23:39;;;;;;;1.10;1.00;;;;;;;;;;5077360;28;20287;-61
2022/07/13 07:26:08;;;;;;;1.00;1.00;;;;;;;;;;5075329;28;20243;-62
2022/07/13 07:28:35;;;;;;;1.08;1.08;;;;;;;;;;5074772;28;20212;-62
2022/07/13 07:31:03;;;;;;;0.90;0.90;;;;;;;;;;5077702;28;20579;-61
2022/07/13 07:33:31;;;;;;;0.95;0.90;;;;;;;;;;5074781;28;20553;-62
2022/07/13 07:35:58;;;;;;;1.10;1.10;;;;;;;;;;5074839;28;20236;-61
2022/07/13 07:38:26;;;;;;;1.00;1.00;;;;;;;;;;5074325;28;20239;-62
2022/07/13 07:40:53;;;;;;;0.95;0.95;;;;;;;;;;5082313;28;20253;-61
2022/07/13 07:43:22;;;;;;;0.93;0.93;;;;;;;;;;5079545;28;20481;-60
2022/07/13 07:45:51;;;;;;;1.02;0.93;;;;;;;;;;5079562;28;20203;-61
2022/07/13 07:48:19;;;;;;;1.00;0.90;;;;;;;;;;5083516;28;20683;-61
2022/07/13 07:50:46;;;;;;;0.90;0.90;;;;;;;;;;5082552;28;20718;-61
2022/07/13 07:53:14;;;;;;;0.70;0.70;;;;;;;;;;5094031;28;20638;-62
2022/07/13 07:55:41;;;;;;;0.90;0.90;;;;;;;;;;5090570;28;20275;-62
2022/07/13 07:58:10;;;;;;;1.25;1.00;;;;;;;;;;5087222;28;20214;-62
2022/07/13 08:00:39;;;;;;;1.17;0.90;;;;;;;;;;5094128;28;20200;-62
2022/07/13 08:03:06;;;;;;;2.10;0.90;;;;;;;;;;5094632;28;20235;-62
2022/07/13 08:05:34;;;;;;;2.15;0.90;;;;;;;;;;5085496;28;20250;-62
2022/07/13 08:08:02;;;;;;;2.50;1.13;;;;;;;;;;5074712;28;20581;-62
2022/07/13 08:10:30;;;;;;;2.10;1.00;;;;;;;;;;5078202;28;20608;-62
2022/07/13 08:12:59;;;;;;;1.50;1.00;;;;;;;;;;5063726;28;20205;-62
2022/07/13 08:15:26;;;;;;;1.90;0.95;;;;;;;;;;5056705;28;20596;-62
2022/07/13 08:17:56;;;;;;;1.25;1.08;;;;;;;;;;5057010;28;20240;-62
2022/07/13 08:20:23;;;;;;;1.38;0.98;;;;;;;;;;5061436;28;20204;-62
2022/07/13 08:22:51;;;;;;;1.92;0.95;;;;;;;;;;5076351;28;20631;-61
2022/07/13 08:25:19;;;;;;;0.88;0.85;;;;;;;;;;5076548;28;20251;-62
2022/07/13 08:27:46;;;;;;;0.80;0.80;;;;;;;;;;5076127;28;20204;-59
2022/07/13 08:30:14;;;;;;;1.08;0.93;;;;;;;;;;5077453;28;20545;-62
2022/07/13 08:32:42;;;;;;;1.33;1.08;;;;;;;;;;5076599;28;20651;-62
2022/07/13 08:40:44;;;;;;;1.17;1.00;;;;;;;;;;5073230;28;20231;-62
2022/07/13 08:43:11;;;;;;;1.00;1.00;;;;;;;;;;5077253;28;20204;-61
2022/07/13 08:45:39;;;;;;;2.45;1.20;;;;;;;;;;5075677;28;20200;-62
2022/07/13 08:48:11;;;;;;;0.82;0.82;;;;;;;;;;5076193;28;20251;-62
2022/07/13 08:50:41;;;;;;;0.90;0.90;;;;;;;;;;5076539;28;20257;-62
2022/07/13 08:53:08;;;;;;;1.15;1.10;;;;;;;;;;5076933;28;20231;-62
2022/07/13 08:55:37;;;;;;;0.93;0.90;;;;;;;;;;5076602;28;20249;-62
2022/07/13 08:58:05;;;;;;;1.65;1.20;;;;;;;;;;5076018;28;20295;-62
2022/07/13 09:00:32;;;;;;;1.02;1.00;;;;;;;;;;5076483;28;20204;-61
2022/07/13 09:03:00;;;;;;;1.92;1.08;;;;;;;;;;5075941;28;20554;-61
2022/07/13 09:05:28;;;;;;;2.35;1.10;;;;;;;;;;5076104;28;20204;-61
2022/07/13 09:08:05;;;;;;;0.90;0.90;;;;;;;;;;5058333;28;20208;-61
2022/07/13 09:10:33;;;;;;;1.38;0.90;;;;;;;;;;5055342;28;20211;-62
2022/07/13 09:13:00;;;;;;;0.98;0.98;;;;;;;;;;5056087;28;20327;-62
2022/07/13 09:15:28;;;;;;;1.40;1.25;;;;;;;;;;5054919;28;20626;-61
2022/07/13 09:17:55;;;;;;;1.10;1.00;;;;;;;;;;5055591;28;20232;-62
2022/07/13 09:20:23;;;;;;;2.15;1.15;;;;;;;;;;5055575;28;20303;-62
2022/07/13 09:22:52;;;;;;;1.10;1.00;;;;;;;;;;5055669;28;20254;-62
2022/07/13 09:25:33;;;;;;;1.30;0.95;;;;;;;;;;5056313;28;20299;-62
2022/07/13 09:28:04;;;;;;;1.20;1.00;;;;;;;;;;5055924;28;20196;-62
2022/07/13 09:30:31;;;;;;;1.08;0.82;;;;;;;;;;5055691;28;20232;-62
2022/07/13 09:33:00;;;;;;;1.20;1.10;;;;;;;;;;5055371;28;20525;-62
2022/07/13 09:35:43;;;;;;;0.93;0.90;;;;;;;;;;5072686;28;20255;-62
2022/07/13 09:38:10;;;;;;;1.00;0.98;;;;;;;;;;5076189;28;20236;-62
2022/07/13 09:40:40;;;;;;;1.20;1.10;;;;;;;;;;5075116;28;20200;-61
2022/07/13 09:46:10;;;;;;;0.90;0.90;;;;;;;;;;5074439;28;20342;-62
2022/07/13 09:48:38;;;;;;;0.90;0.90;;;;;;;;;;5074115;28;20205;-61
2022/07/13 09:51:07;;;;;;;1.25;1.10;;;;;;;;;;5075178;28;20281;-63
2022/07/13 09:53:36;;;;;;;1.00;0.90;;;;;;;;;;5075148;28;20536;-61
2022/07/13 09:56:06;;;;;;;1.42;1.13;;;;;;;;;;5074891;28;20204;-61
2022/07/13 09:58:35;;;;;;;0.90;0.90;;;;;;;;;;5074728;28;20211;-61
2022/07/13 10:01:03;;;;;;;1.35;1.08;;;;;;;;;;5075003;28;20208;-61
2022/07/13 10:03:31;;;;;;;1.08;0.98;;;;;;;;;;5075360;28;20232;-61
2022/07/13 10:05:59;;;;;;;1.25;1.15;;;;;;;;;;5074844;28;20718;-61
2022/07/13 10:08:27;;;;;;;1.30;1.08;;;;;;;;;;5074200;28;20250;-61
2022/07/13 10:10:55;;;;;;;1.10;1.00;;;;;;;;;;5074534;28;20566;-61
2022/07/13 10:13:24;;;;;;;2.25;1.10;;;;;;;;;;5073691;28;20286;-61
2022/07/13 10:15:52;;;;;;;1.30;1.10;;;;;;;;;;5073095;28;20246;-61
2022/07/13 10:18:21;;;;;;;2.63;1.45;;;;;;;;;;5073713;28;20208;-61
2022/07/13 10:20:51;;;;;;;2.40;1.23;;;;;;;;;;5074284;28;20262;-61
2022/07/13 10:23:32;;;;;;;2.70;1.40;;;;;;;;;;5074498;28;20306;-61
2022/07/13 10:25:59;;;;;;;2.08;1.50;;;;;;;;;;5074534;28;20204;-62
2022/07/13 10:28:28;;;;;;;2.88;1.60;;;;;;;;;;5073185;28;20204;-62
2022/07/13 10:30:56;;;;;;;1.60;1.50;;;;;;;;;;5072121;28;20226;-63
2022/07/13 10:33:28;;;;;;;3.15;1.60;;;;;;;;;;5073790;28;20263;-62
2022/07/13 10:35:57;;;;;;;4.07;1.60;;;;;;;;;;5074173;28;20242;-62
2022/07/13 10:38:27;;;;;;;2.33;1.23;;;;;;;;;;5074659;28;20212;-62
2022/07/13 10:41:10;;;;;;;3.90;1.52;;;;;;;;;;5072975;28;20211;-61
2022/07/13 10:43:39;;;;;;;2.03;1.40;;;;;;;;;;5073900;28;20228;-62
2022/07/13 10:46:06;;;;;;;2.63;1.42;;;;;;;;;;5074265;28;20258;-62
2022/07/13 10:48:48;;;;;;;2.83;1.60;;;;;;;;;;5073819;28;20261;-62
2022/07/13 10:51:19;;;;;;;2.47;1.42;;;;;;;;;;5073124;28;20202;-62
2022/07/13 10:54:05;;;;;;;1.63;1.45;;;;;;;;;;5073199;28;20215;-62
2022/07/13 10:56:33;;;;;;;1.83;1.40;;;;;;;;;;5068958;28;20207;-62
2022/07/13 10:59:03;;;;;;;2.90;1.30;;;;;;;;;;5055533;28;20209;-62
2022/07/13 11:01:49;;;;;;;1.33;1.20;;;;;;;;;;5054424;28;20496;-62
2022/07/13 11:04:18;;;;;;;2.08;1.25;;;;;;;;;;5053828;28;20485;-62
2022/07/13 11:07:00;;;;;;;2.03;1.48;;;;;;;;;;5053862;28;20232;-62
2022/07/13 11:09:28;;;;;;;2.10;1.50;;;;;;;;;;5053063;28;20270;-62
2022/07/13 11:11:55;;;;;;;1.80;1.30;;;;;;;;;;5053938;28;20725;-61
2022/07/13 11:14:42;;;;;;;1.92;1.42;;;;;;;;;;5053448;28;20244;-62
2022/07/13 11:17:13;;;;;;;1.98;1.40;;;;;;;;;;5032682;28;20292;-61
2022/07/13 11:19:50;;;;;;;2.33;1.40;;;;;;;;;;5033459;28;20210;-62
2022/07/13 11:22:18;;;;;;;3.63;1.50;;;;;;;;;;5034205;28;20267;-62
2022/07/13 11:27:37;;;;;;;2.17;1.10;;;;;;;;;;5052193;28;20245;-61
2022/07/13 11:30:06;;;;;;;1.83;1.25;;;;;;;;;;5053135;28;20244;-63
2022/07/13 11:32:35;;;;;;;1.40;1.23;;;;;;;;;;5053884;28;20268;-62
2022/07/13 11:35:05;;;;;;;1.40;1.17;;;;;;;;;;5053368;28;20270;-62
2022/07/13 11:37:32;;;;;;;1.55;1.20;;;;;;;;;;5034122;28;20228;-62
2022/07/13 11:40:00;;;;;;;1.50;1.20;;;;;;;;;;5033843;28;20650;-62
2022/07/13 11:42:28;;;;;;;1.48;1.02;;;;;;;;;;5034843;28;20202;-62
2022/07/13 11:44:56;;;;;;;2.17;1.42;;;;;;;;;;5038045;28;20205;-62
2022/07/13 11:47:23;;;;;;;1.48;1.30;;;;;;;;;;5038173;28;20201;-62
2022/07/13 11:49:54;;;;;;;2.35;1.40;;;;;;;;;;5037686;28;20292;-62
2022/07/13 11:52:22;;;;;;;2.25;1.17;;;;;;;;;;5048225;28;20225;-62
2022/07/13 11:55:00;;;;;;;1.90;1.30;;;;;;;;;;5056796;28;20303;-62
2022/07/13 11:57:28;;;;;;;1.90;1.27;;;;;;;;;;5057454;28;20200;-62
2022/07/13 12:00:01;;;;;;;1.45;1.25;;;;;;;;;;5057450;28;20717;-62
2022/07/13 12:02:28;;;;;;;1.70;1.30;;;;;;;;;;5056930;28;20219;-61
2022/07/13 12:04:57;;;;;;;1.05;1.00;;;;;;;;;;5056916;28;20201;-62
2022/07/13 12:07:25;;;;;;;2.33;1.08;;;;;;;;;;5056378;28;20232;-62
2022/07/13 12:09:53;;;;;;;1.60;1.30;;;;;;;;;;5057225;28;20201;-63
2022/07/13 12:12:22;;;;;;;1.45;1.35;;;;;;;;;;5063147;28;20284;-62
2022/07/13 12:14:50;;;;;;;1.17;1.10;;;;;;;;;;5077774;28;20503;-62
2022/07/13 12:17:18;;;;;;;1.80;1.35;;;;;;;;;;5096834;28;20207;-62
2022/07/13 12:19:45;;;;;;;1.13;1.02;;;;;;;;;;5082351;28;20196;-62
2022/07/13 12:22:15;;;;;;;2.58;1.30;;;;;;;;;;5056829;28;20209;-62
2022/07/13 12:24:47;;;;;;;1.42;1.33;;;;;;;;;;5056945;28;20534;-62
2022/07/13 12:27:28;;;;;;;2.13;1.25;;;;;;;;;;5056673;28;20212;-62
2022/07/13 12:30:09;;;;;;;1.60;1.38;;;;;;;;;;5056366;28;20213;-62
2022/07/13 12:32:51;;;;;;;3.03;1.30;;;;;;;;;;5056235;28;20232;-61
2022/07/13 12:35:19;;;;;;;2.63;1.38;;;;;;;;;;5056271;28;20236;-61
2022/07/13 12:37:52;;;;;;;4.30;1.40;;;;;;;;;;5056116;28;20205;-61
2022/07/13 12:40:34;;;;;;;9.95;1.75;;;;;;;;;;5056841;28;20227;-62
2022/07/13 12:43:02;;;;;;;5.68;1.60;;;;;;;;;;5055860;28;20203;-62
2022/07/13 12:45:31;;;;;;;4.90;1.60;;;;;;;;;;5056064;28;20578;-61
2022/07/13 12:47:58;;;;;;;3.72;1.55;;;;;;;;;;5071720;28;20196;-61
2022/07/13 12:50:30;;;;;;;2.80;1.23;;;;;;;;;;5075713;28;20546;-61
2022/07/13 12:53:02;;;;;;;3.70;1.35;;;;;;;;;;5076127;28;20744;-62
2022/07/13 12:55:30;;;;;;;3.30;1.40;;;;;;;;;;5074938;28;20204;-61
2022/07/13 12:57:57;;;;;;;2.17;1.30;;;;;;;;;;5076614;28;20211;-61
2022/07/13 13:00:26;;;;;;;1.50;1.40;;;;;;;;;;5075961;28;20562;-61
2022/07/13 13:02:54;;;;;;;2.55;1.40;;;;;;;;;;5065966;28;20189;-61
2022/07/13 13:05:22;;;;;;;1.30;1.20;;;;;;;;;;5055508;28;20197;-61
2022/07/13 13:07:50;;;;;;;1.63;1.27;;;;;;;;;;5074866;28;20285;-61
2022/07/13 13:10:18;;;;;;;1.50;1.40;;;;;;;;;;5075880;28;20428;-62
2022/07/13 13:12:46;;;;;;;1.92;1.55;;;;;;;;;;5075995;28;20229;-61
2022/07/13 13:15:15;;;;;;;2.03;1.13;;;;;;;;;;5075410;28;20232;-61
2022/07/13 13:17:43;;;;;;;1.90;1.38;;;;;;;;;;5075044;28;20204;-61
2022/07/13 13:20:11;;;;;;;1.98;1.50;;;;;;;;;;5076025;28;20204;-60
2022/07/13 13:22:38;;;;;;;1.80;1.30;;;;;;;;;;5075620;28;20208;-61
2022/07/13 13:25:06;;;;;;;2.15;1.48;;;;;;;;;;5075612;28;20205;-61
2022/07/13 13:27:35;;;;;;;1.55;1.35;;;;;;;;;;5075771;28;20628;-61
2022/07/13 13:32:48;;;;;;;3.13;1.35;;;;;;;;;;5074841;28;20326;-61
2022/07/13 13:35:16;;;;;;;7.20;1.58;;;;;;;;;;5074926;28;20590;-61
2022/07/13 13:37:46;;;;;;;4.38;1.40;;;;;;;;;;5075166;28;20628;-61
2022/07/13 13:40:14;;;;;;;2.17;1.40;;;;;;;;;;5074910;28;20306;-61
2022/07/13 13:42:43;;;;;;;2.05;1.50;;;;;;;;;;5076042;28;20240;-61
2022/07/13 13:45:12;;;;;;;2.78;1.60;;;;;;;;;;5075130;28;20220;-60
2022/07/13 13:47:39;;;;;;;2.83;1.30;;;;;;;;;;5059122;28;20219;-61
2022/07/13 13:50:07;;;;;;;2.67;1.63;;;;;;;;;;5074368;28;20762;-60
2022/07/13 13:52:34;;;;;;;1.55;1.45;;;;;;;;;;5074433;28;20224;-60
2022/07/13 13:55:02;;;;;;;1.85;1.25;;;;;;;;;;5074285;28;20545;-60
2022/07/13 13:57:30;;;;;;;1.60;1.25;;;;;;;;;;5074735;28;20658;-60
2022/07/13 13:59:59;;;;;;;2.03;1.38;;;;;;;;;;5074746;28;20287;-61
2022/07/13 14:02:26;;;;;;;2.05;1.20;;;;;;;;;;5075056;28;20242;-61
2022/07/13 14:04:54;;;;;;;1.20;1.10;;;;;;;;;;5074706;28;20230;-61
2022/07/13 14:07:21;;;;;;;1.98;1.30;;;;;;;;;;5075121;28;20235;-61
2022/07/13 14:09:49;;;;;;;1.50;1.40;;;;;;;;;;5074627;28;20644;-61
2022/07/13 14:12:16;;;;;;;2.10;1.20;;;;;;;;;;5074375;28;20204;-61
2022/07/13 14:14:44;;;;;;;1.50;1.40;;;;;;;;;;5060476;28;20786;-60
2022/07/13 14:17:13;;;;;;;2.13;1.23;;;;;;;;;;5054484;28;20205;-60
2022/07/13 14:19:46;;;;;;;1.83;1.17;;;;;;;;;;5054787;28;20295;-61
2022/07/13 14:22:13;;;;;;;1.80;1.20;;;;;;;;;;5054587;28;20231;-60
2022/07/13 14:24:41;;;;;;;1.50;1.23;;;;;;;;;;5054440;28;20305;-61
2022/07/13 14:27:08;;;;;;;1.55;1.10;;;;;;;;;;5053792;28;20240;-60
2022/07/13 14:29:36;;;;;;;2.17;1.05;;;;;;;;;;5052762;28;20248;-60
2022/07/13 14:32:03;;;;;;;0.93;0.93;;;;;;;;;;5053780;28;20205;-60
2022/07/13 14:34:33;;;;;;;1.70;1.35;;;;;;;;;;5053875;28;20612;-60
2022/07/13 14:37:00;;;;;;;1.13;1.10;;;;;;;;;;5054107;28;20213;-60
2022/07/13 14:39:28;;;;;;;1.30;1.20;;;;;;;;;;5054273;28;20219;-62
2022/07/13 14:41:55;;;;;;;1.40;1.30;;;;;;;;;;5063983;28;20228;-60
2022/07/13 14:44:23;;;;;;;1.73;1.40;;;;;;;;;;5074042;28;20208;-60
2022/07/13 14:46:52;;;;;;;2.22;1.20;;;;;;;;;;5073956;28;20236;-60
2022/07/13 14:49:20;;;;;;;1.40;1.30;;;;;;;;;;5074318;28;20254;-60
2022/07/13 14:51:49;;;;;;;1.20;1.10;;;;;;;;;;5074745;28;20214;-60
2022/07/13 14:54:17;;;;;;;1.70;1.30;;;;;;;;;;5073283;28;20581;-61
2022/07/13 14:56:44;;;;;;;1.38;1.20;;;;;;;;;;5073874;28;20231;-60
2022/07/13 14:59:12;;;;;;;1.70;1.10;;;;;;;;;;5073953;28;20235;-61
2022/07/13 15:01:39;;;;;;;1.00;0.90;;;;;;;;;;5074653;28;20287;-60
2022/07/13 15:04:08;;;;;;;2.83;1.50;;;;;;;;;;5074314;28;20204;-60
2022/07/13 15:06:36;;;;;;;1.58;1.30;;;;;;;;;;5074200;28;20204;-60